Time;durP1;ratioP1;P1;durP2;ratioP2;P2;SDS_P1;SDS_P2;PMS_P1;PMS_P2;Temp;Humidity;BMP_temperature;BMP_pressure;BME280_temperature;BME280_humidity;BME280_pressure;Samples;Min_cycle;Max_cycle;Signal;HPM_P1;HPM_P2
2021/05/29 00:02:01;;;;;;;4.80;4.28;;;;;;;9.58;100.00;96847.09;4988040;28;20073;-55
2021/05/29 00:04:29;;;;;;;5.28;4.82;;;;;;;9.45;100.00;96827.06;4984481;28;20066;-57
2021/05/29 00:06:57;;;;;;;5.93;4.93;;;;;;;9.44;100.00;96824.56;4984920;28;20089;-55
2021/05/29 00:09:26;;;;;;;6.05;5.38;;;;;;;9.47;100.00;96825.16;4988848;28;20066;-54
2021/05/29 00:11:54;;;;;;;5.88;5.35;;;;;;;9.57;100.00;96833.13;4985259;28;20077;-56
2021/05/29 00:14:22;;;;;;;5.90;5.03;;;;;;;9.58;100.00;96831.31;4982696;28;20077;-56
2021/05/29 00:16:50;;;;;;;6.95;5.60;;;;;;;9.58;100.00;96826.03;4987094;28;20058;-57
2021/05/29 00:19:18;;;;;;;7.25;5.47;;;;;;;9.56;100.00;96825.31;4983458;28;20074;-57
2021/05/29 00:21:46;;;;;;;5.38;4.85;;;;;;;9.59;100.00;96833.78;4986686;28;20081;-54
2021/05/29 00:24:14;;;;;;;5.90;5.32;;;;;;;9.69;100.00;96823.31;4985215;28;20069;-58
2021/05/29 00:26:43;;;;;;;5.60;5.10;;;;;;;9.73;100.00;96820.28;4984135;28;20072;-56
2021/05/29 00:29:11;;;;;;;8.05;5.43;;;;;;;9.83;100.00;96811.63;4979624;28;20066;-55
2021/05/29 00:31:39;;;;;;;6.63;5.53;;;;;;;9.94;100.00;96811.53;4986055;28;20444;-54
2021/05/29 00:34:08;;;;;;;7.15;5.80;;;;;;;10.01;100.00;96811.84;4985118;28;20449;-56
2021/05/29 00:36:36;;;;;;;6.68;5.32;;;;;;;9.99;100.00;96809.34;4990445;28;20077;-54
2021/05/29 00:39:05;;;;;;;6.47;5.43;;;;;;;9.93;100.00;96804.59;4984680;28;20089;-57
2021/05/29 00:41:33;;;;;;;6.25;5.65;;;;;;;10.05;100.00;96813.22;4985112;28;20092;-55
2021/05/29 00:44:03;;;;;;;5.63;5.03;;;;;;;9.70;100.00;96815.31;4987679;28;20181;-58
2021/05/29 00:46:31;;;;;;;9.80;5.60;;;;;;;9.74;100.00;96819.34;4981966;28;20050;-57
2021/05/29 00:48:59;;;;;;;6.43;5.50;;;;;;;9.70;100.00;96810.03;4985855;28;20608;-58
2021/05/29 00:51:27;;;;;;;6.68;6.00;;;;;;;9.71;100.00;96811.72;4986849;28;20516;-55
2021/05/29 00:53:56;;;;;;;7.93;6.25;;;;;;;9.68;100.00;96814.59;4984085;28;20058;-54
2021/05/29 00:56:24;;;;;;;7.88;6.15;;;;;;;9.64;100.00;96810.56;4983231;28;20090;-54
2021/05/29 00:58:52;;;;;;;8.13;5.93;;;;;;;9.61;100.00;96808.19;4984084;28;20062;-57
2021/05/29 01:01:21;;;;;;;7.28;5.75;;;;;;;9.63;100.00;96810.69;4980918;28;20070;-55
2021/05/29 01:03:49;;;;;;;6.82;5.80;;;;;;;9.66;100.00;96805.16;4990324;28;20082;-57
2021/05/29 01:06:17;;;;;;;6.78;6.05;;;;;;;9.59;100.00;96801.38;4979189;28;20067;-57
2021/05/29 01:08:45;;;;;;;7.93;6.03;;;;;;;9.67;100.00;96809.44;4986183;28;20058;-55
2021/05/29 01:11:13;;;;;;;8.07;5.95;;;;;;;9.65;100.00;96803.50;4984799;28;20062;-54
2021/05/29 01:13:41;;;;;;;6.32;5.72;;;;;;;9.68;100.00;96796.16;4983989;28;20077;-53
2021/05/29 01:16:16;;;;;;;7.03;6.32;;;;;;;9.70;100.00;96790.75;4984673;28;20089;-57
2021/05/29 01:18:46;;;;;;;8.25;6.80;;;;;;;9.73;100.00;96787.88;4988018;28;20073;-56
2021/05/29 01:21:14;;;;;;;8.63;6.13;;;;;;;9.69;100.00;96784.66;4983396;28;20083;-55
2021/05/29 01:23:43;;;;;;;8.40;6.18;;;;;;;9.65;100.00;96792.97;4987272;28;20062;-55
2021/05/29 01:26:11;;;;;;;7.75;6.53;;;;;;;9.63;100.00;96794.88;4983449;28;20544;-54
2021/05/29 01:28:39;;;;;;;9.80;6.07;;;;;;;9.78;100.00;96795.38;4983001;28;20067;-55
2021/05/29 01:31:09;;;;;;;7.00;6.30;;;;;;;9.79;100.00;96795.25;4983890;28;20093;-56
2021/05/29 01:33:38;;;;;;;6.97;6.28;;;;;;;9.77;100.00;96788.44;4986512;28;20086;-54
2021/05/29 01:36:08;;;;;;;9.68;7.18;;;;;;;9.90;100.00;96791.69;4981041;28;20615;-58
2021/05/29 01:38:38;;;;;;;7.18;6.32;;;;;;;9.88;100.00;96789.19;4981176;28;20477;-54
2021/05/29 01:41:09;;;;;;;6.65;5.95;;;;;;;9.86;100.00;96793.75;4982920;28;20073;-58
2021/05/29 01:43:38;;;;;;;7.28;6.57;;;;;;;9.97;100.00;96793.66;4983425;28;20409;-54
2021/05/29 01:46:06;;;;;;;7.35;6.53;;;;;;;9.77;100.00;96791.06;4984610;28;20112;-55
2021/05/29 01:48:38;;;;;;;8.70;6.53;;;;;;;9.92;100.00;96795.03;4984709;28;20472;-55
2021/05/29 01:51:07;;;;;;;6.88;6.20;;;;;;;9.72;100.00;96794.09;4983273;28;20466;-58
2021/05/29 01:53:35;;;;;;;7.07;6.38;;;;;;;9.54;100.00;96785.97;4981567;28;20073;-54
2021/05/29 01:56:03;;;;;;;6.35;5.75;;;;;;;9.66;100.00;96789.34;4983111;28;20449;-58
2021/05/29 01:58:33;;;;;;;7.50;6.50;;;;;;;9.53;100.00;96786.91;4983558;28;20492;-57
2021/05/29 02:01:02;;;;;;;7.07;6.38;;;;;;;9.49;100.00;96798.69;4984670;28;20082;-58
2021/05/29 02:03:30;;;;;;;8.27;7.32;;;;;;;9.64;100.00;96800.03;4982127;28;20093;-57
2021/05/29 02:05:58;;;;;;;7.07;6.38;;;;;;;9.65;100.00;96793.78;4983331;28;20129;-58
2021/05/29 02:08:26;;;;;;;7.38;6.30;;;;;;;9.65;100.00;96791.16;4982295;28;20066;-57
2021/05/29 02:10:54;;;;;;;11.07;7.03;;;;;;;9.55;100.00;96794.69;4986894;28;20069;-55
2021/05/29 02:13:24;;;;;;;7.10;6.40;;;;;;;9.60;100.00;96787.22;4986020;28;20070;-58
2021/05/29 02:15:54;;;;;;;6.97;6.35;;;;;;;9.52;100.00;96783.47;4984337;28;20086;-58
2021/05/29 02:18:23;;;;;;;7.68;6.85;;;;;;;9.61;100.00;96784.50;4988478;28;20396;-57
2021/05/29 02:20:52;;;;;;;7.40;6.70;;;;;;;9.69;100.00;96784.66;4985627;28;20084;-57
2021/05/29 02:23:23;;;;;;;7.60;6.88;;;;;;;9.71;100.00;96782.75;4982806;28;20149;-53
2021/05/29 02:25:53;;;;;;;6.70;6.10;;;;;;;9.58;100.00;96782.13;4985007;28;20537;-58
2021/05/29 02:28:22;;;;;;;8.07;6.25;;;;;;;9.54;100.00;96785.97;4983676;28;20070;-58
2021/05/29 02:30:51;;;;;;;7.20;5.88;;;;;;;9.57;100.00;96777.81;4986747;28;20086;-59
2021/05/29 02:33:20;;;;;;;5.95;5.35;;;;;;;9.49;100.00;96780.25;4985194;28;20066;-58
2021/05/29 02:35:48;;;;;;;6.57;5.97;;;;;;;9.40;100.00;96786.31;4984142;28;20480;-56
2021/05/29 02:38:17;;;;;;;6.25;5.65;;;;;;;9.36;100.00;96791.00;4987223;28;20456;-56
2021/05/29 02:40:45;;;;;;;7.00;6.30;;;;;;;9.59;100.00;96782.94;4984490;28;20070;-58
2021/05/29 02:43:13;;;;;;;6.60;6.00;;;;;;;9.65;100.00;96767.47;4989001;28;20080;-56
2021/05/29 02:45:41;;;;;;;6.10;5.60;;;;;;;9.51;100.00;96767.81;4987514;28;20085;-53
2021/05/29 02:48:11;;;;;;;7.47;5.88;;;;;;;9.57;100.00;96771.72;4987726;28;20069;-54
2021/05/29 02:50:40;;;;;;;6.80;6.05;;;;;;;9.57;100.00;96767.28;4987223;28;20792;-56
2021/05/29 02:53:09;;;;;;;7.80;6.00;;;;;;;9.34;100.00;96777.13;4985884;28;20073;-58
2021/05/29 02:55:39;;;;;;;5.70;5.20;;;;;;;9.39;100.00;96788.09;4985259;28;20511;-55
2021/05/29 02:58:07;;;;;;;7.50;5.47;;;;;;;9.45;100.00;96777.03;4988867;28;20081;-58
2021/05/29 03:00:38;;;;;;;6.63;5.93;;;;;;;9.59;100.00;96778.50;4987807;28;20097;-54
2021/05/29 03:03:07;;;;;;;;;;;;;;;9.52;100.00;96786.09;4989359;28;20524;-56
2021/05/29 03:05:36;;;;;;;6.07;5.53;;;;;;;9.52;100.00;96788.72;4985157;28;19968;-53
2021/05/29 03:08:06;;;;;;;7.45;5.60;;;;;;;9.53;100.00;96789.56;4986008;28;20065;-57
2021/05/29 03:10:34;;;;;;;8.32;5.75;;;;;;;9.59;100.00;96783.78;4986505;28;20070;-56
2021/05/29 03:13:02;;;;;;;10.98;6.95;;;;;;;9.68;100.00;96787.44;4982803;28;20097;-58
2021/05/29 03:15:31;;;;;;;10.90;7.70;;;;;;;9.68;100.00;96790.06;4985386;28;20089;-58
2021/05/29 03:17:59;;;;;;;7.90;7.07;;;;;;;9.71;100.00;96788.00;4984656;28;20066;-58
2021/05/29 03:20:29;;;;;;;6.78;6.07;;;;;;;9.77;100.00;96785.78;4983276;28;20038;-56
2021/05/29 03:22:58;;;;;;;7.28;6.30;;;;;;;9.80;100.00;96791.63;4984329;28;20632;-58
2021/05/29 03:25:27;;;;;;;6.80;6.10;;;;;;;9.81;100.00;96790.69;4985518;28;20080;-56
2021/05/29 03:27:55;;;;;;;6.97;6.05;;;;;;;9.76;100.00;96795.50;4984970;28;20069;-58
2021/05/29 03:30:25;;;;;;;7.28;6.25;;;;;;;9.78;100.00;96804.13;4991465;28;20081;-54
2021/05/29 03:32:53;;;;;;;6.78;6.00;;;;;;;9.83;100.00;96809.81;4984637;28;20061;-53
2021/05/29 03:35:21;;;;;;;7.63;6.32;;;;;;;9.67;100.00;96806.81;4985530;28;20042;-56
2021/05/29 03:37:49;;;;;;;6.65;5.95;;;;;;;9.80;100.00;96806.59;4981232;28;20062;-58
2021/05/29 03:40:18;;;;;;;6.65;6.05;;;;;;;9.90;100.00;96810.97;4985821;28;20068;-58
2021/05/29 03:42:47;;;;;;;7.32;5.97;;;;;;;9.91;100.00;96807.38;4985650;28;20089;-50
2021/05/29 03:45:16;;;;;;;8.38;6.20;;;;;;;9.92;100.00;96810.84;4987171;28;20161;-57
2021/05/29 03:47:45;;;;;;;8.43;5.93;;;;;;;9.86;100.00;96811.34;4982638;28;20039;-57
2021/05/29 03:50:15;;;;;;;7.03;6.13;;;;;;;9.85;100.00;96810.53;4987871;28;20185;-58
2021/05/29 03:52:43;;;;;;;6.72;6.10;;;;;;;9.90;100.00;96810.13;4984250;28;20096;-58
2021/05/29 03:55:13;;;;;;;6.75;6.10;;;;;;;9.97;100.00;96819.16;4985089;28;20074;-58
2021/05/29 03:57:41;;;;;;;6.90;6.20;;;;;;;10.10;100.00;96821.59;4984576;28;20042;-57
2021/05/29 04:00:12;;;;;;;7.18;5.60;;;;;;;10.18;100.00;96819.09;4985494;28;20486;-57
2021/05/29 04:02:40;;;;;;;6.63;5.95;;;;;;;10.09;100.00;96827.84;4981907;28;20078;-58
2021/05/29 04:05:10;;;;;;;6.97;6.20;;;;;;;10.14;100.00;96834.34;4986852;28;20089;-59
2021/05/29 04:07:39;;;;;;;6.85;6.15;;;;;;;10.13;100.00;96829.22;4983630;28;20101;-59
2021/05/29 04:10:09;;;;;;;8.27;6.20;;;;;;;10.53;100.00;96831.03;4987293;28;20105;-58
2021/05/29 04:12:37;;;;;;;6.13;5.53;;;;;;;10.66;100.00;96827.19;4987782;28;20066;-59
2021/05/29 04:15:08;;;;;;;6.07;5.53;;;;;;;10.69;100.00;96826.91;4985191;28;20054;-58
2021/05/29 04:17:38;;;;;;;6.43;5.82;;;;;;;11.02;100.00;96822.25;4985646;28;20074;-59
2021/05/29 04:20:09;;;;;;;7.63;5.70;;;;;;;11.26;100.00;96818.34;4987245;28;20077;-57
2021/05/29 04:22:37;;;;;;;5.75;5.22;;;;;;;12.06;100.00;96817.91;4983828;28;20062;-58
2021/05/29 04:25:08;;;;;;;6.13;5.18;;;;;;;12.91;100.00;96815.94;4983670;28;20097;-59
2021/05/29 04:27:36;;;;;;;6.85;5.55;;;;;;;13.54;100.00;96812.38;4989765;28;20074;-57
2021/05/29 04:30:07;;;;;;;6.28;5.63;;;;;;;14.33;100.00;96819.28;4983031;28;20066;-59
2021/05/29 04:32:35;;;;;;;6.57;5.40;;;;;;;15.29;100.00;96802.13;4986675;28;20081;-57
2021/05/29 04:35:05;;;;;;;6.13;4.88;;;;;;;16.58;100.00;96804.72;4982859;28;20066;-60
2021/05/29 04:37:33;;;;;;;5.88;4.88;;;;;;;18.34;89.29;96802.84;4985583;28;20054;-60
2021/05/29 04:40:02;;;;;;;8.57;4.78;;;;;;;19.53;76.88;96798.03;4982389;28;20081;-60
2021/05/29 04:42:30;;;;;;;4.88;4.47;;;;;;;19.97;70.95;96801.50;4988500;28;20538;-59
2021/05/29 04:44:58;;;;;;;5.53;4.07;;;;;;;20.00;67.63;96809.13;4977396;28;20073;-60
2021/05/29 04:47:27;;;;;;;4.75;4.05;;;;;;;19.43;69.37;96816.25;4986917;28;20069;-59
2021/05/29 04:49:55;;;;;;;4.13;3.72;;;;;;;18.62;71.01;96813.69;4982959;28;20061;-58
2021/05/29 04:52:24;;;;;;;5.03;4.10;;;;;;;18.87;70.17;96816.06;4984744;28;20054;-59
2021/05/29 04:54:52;;;;;;;4.47;4.07;;;;;;;17.63;78.69;96817.56;4985125;28;20069;-58
2021/05/29 04:57:20;;;;;;;5.55;4.28;;;;;;;16.75;84.57;96821.47;4985800;28;20070;-59
2021/05/29 04:59:48;;;;;;;5.70;4.13;;;;;;;15.82;95.43;96816.75;4983208;28;20189;-59
2021/05/29 05:02:16;;;;;;;5.20;4.40;;;;;;;16.89;89.23;96812.72;4985510;28;20047;-58
2021/05/29 05:04:44;;;;;;;4.50;4.03;;;;;;;16.93;88.12;96823.88;4983017;28;20527;-58
2021/05/29 05:07:12;;;;;;;5.70;4.03;;;;;;;16.60;93.40;96813.38;4986040;28;20070;-57
2021/05/29 05:09:42;;;;;;;7.68;4.30;;;;;;;16.59;97.13;96815.19;4986317;28;20062;-59
2021/05/29 05:12:10;;;;;;;23.02;5.13;;;;;;;16.37;97.33;96815.94;4980360;28;20073;-57
2021/05/29 05:14:38;;;;;;;6.63;4.10;;;;;;;16.16;97.13;96815.69;4983783;28;20080;-59
2021/05/29 05:17:07;;;;;;;9.18;4.30;;;;;;;16.18;100.00;96813.69;4982772;28;20314;-58
2021/05/29 05:19:35;;;;;;;6.18;4.55;;;;;;;15.97;100.00;96815.06;4984937;28;20077;-58
2021/05/29 05:22:03;;;;;;;5.22;4.10;;;;;;;15.60;100.00;96816.41;4983886;28;20073;-58
2021/05/29 05:24:31;;;;;;;6.50;4.30;;;;;;;15.57;100.00;96810.59;4986545;28;20077;-56
2021/05/29 05:27:01;;;;;;;5.82;4.50;;;;;;;15.17;100.00;96818.41;4981456;28;20058;-58
2021/05/29 05:29:29;;;;;;;4.90;4.38;;;;;;;15.36;100.00;96811.94;4986327;28;20073;-55
2021/05/29 05:31:57;;;;;;;8.25;4.47;;;;;;;15.83;100.00;96816.59;4981596;28;20069;-59
2021/05/29 05:34:26;;;;;;;5.43;4.63;;;;;;;15.89;96.96;96807.91;4983821;28;20058;-58
2021/05/29 05:36:54;;;;;;;5.45;4.65;;;;;;;15.68;98.39;96804.16;4981465;28;20088;-60
2021/05/29 05:39:22;;;;;;;5.53;4.78;;;;;;;16.48;94.48;96810.25;4985991;28;20501;-58
2021/05/29 05:41:50;;;;;;;5.47;4.90;;;;;;;17.24;79.67;96810.50;4980979;28;20081;-58
2021/05/29 05:44:19;;;;;;;5.55;4.55;;;;;;;17.91;77.53;96821.31;4984658;28;20066;-59
2021/05/29 05:46:47;;;;;;;4.60;4.13;;;;;;;18.61;66.01;96819.19;4981286;28;20077;-59
2021/05/29 05:49:16;;;;;;;4.88;4.38;;;;;;;18.65;62.53;96823.16;4988197;28;20101;-60
2021/05/29 05:51:43;;;;;;;6.15;4.50;;;;;;;19.21;58.80;96810.06;4988574;28;20500;-59
2021/05/29 05:54:11;;;;;;;4.57;4.18;;;;;;;19.15;59.69;96822.34;4985002;28;20057;-60
2021/05/29 05:56:40;;;;;;;6.18;4.20;;;;;;;18.95;60.72;96823.97;4986758;28;20065;-59
2021/05/29 05:59:08;;;;;;;4.80;4.30;;;;;;;17.96;69.33;96826.09;4988202;28;20531;-60
2021/05/29 06:01:38;;;;;;;4.93;3.97;;;;;;;17.75;69.95;96829.44;4990323;28;20066;-60
2021/05/29 06:04:12;;;;;;;6.18;4.22;;;;;;;18.73;64.20;96823.94;4988377;28;20116;-58
2021/05/29 06:06:40;;;;;;;4.40;4.00;;;;;;;18.55;68.33;96836.81;4989969;28;20085;-59
2021/05/29 06:09:08;;;;;;;5.38;4.10;;;;;;;18.07;68.64;96833.69;4986381;28;20066;-60
2021/05/29 06:11:36;;;;;;;5.82;4.03;;;;;;;18.12;65.30;96839.28;4988851;28;20547;-60
2021/05/29 06:19:38;;;;;;;4.93;4.25;;;;;;;17.53;73.82;96839.94;4985649;28;20062;-60
2021/05/29 06:22:07;;;;;;;6.72;4.10;;;;;;;17.85;71.73;96837.22;4988503;28;20536;-59
2021/05/29 06:24:37;;;;;;;4.03;3.65;;;;;;;17.93;71.18;96831.81;4988447;28;20109;-58
2021/05/29 06:27:06;;;;;;;4.30;3.90;;;;;;;18.22;66.84;96839.03;4986726;28;20066;-59
2021/05/29 06:29:34;;;;;;;4.43;3.78;;;;;;;17.89;66.91;96830.50;4980804;28;20497;-59
2021/05/29 06:32:04;;;;;;;4.20;3.78;;;;;;;17.75;68.98;96834.75;4989682;28;20066;-59
2021/05/29 06:34:32;;;;;;;5.68;4.10;;;;;;;18.08;65.67;96837.16;4984730;28;20092;-56
2021/05/29 06:37:00;;;;;;;5.82;4.30;;;;;;;18.24;65.54;96845.03;4987441;28;20117;-60
2021/05/29 06:39:29;;;;;;;5.63;4.03;;;;;;;17.56;62.36;96838.78;4989823;28;20078;-60
2021/05/29 06:41:57;;;;;;;4.22;3.60;;;;;;;17.42;66.24;96845.72;4985359;28;20736;-61
2021/05/29 06:44:25;;;;;;;4.40;3.67;;;;;;;18.13;62.44;96853.44;4985238;28;20070;-60
2021/05/29 06:46:53;;;;;;;4.30;3.90;;;;;;;16.97;64.86;96852.66;4988283;28;20069;-59
2021/05/29 06:49:22;;;;;;;5.47;3.95;;;;;;;18.02;61.63;96852.06;4984794;28;20077;-60
2021/05/29 06:51:56;;;;;;;5.13;4.13;;;;;;;18.65;60.05;96849.88;4990170;28;20090;-59
2021/05/29 06:54:35;;;;;;;5.50;4.35;;;;;;;17.56;67.49;96857.44;4983974;28;20358;-60
2021/05/29 06:59:49;;;;;;;4.30;3.90;;;;;;;18.21;64.83;96856.06;4955690;28;20073;-60
2021/05/29 07:02:18;;;;;;;4.40;4.00;;;;;;;18.04;65.24;96852.72;4988405;28;20062;-59
2021/05/29 07:04:47;;;;;;;4.60;3.95;;;;;;;18.08;64.03;96858.53;4982683;28;20073;-60
2021/05/29 07:07:15;;;;;;;4.60;4.20;;;;;;;18.48;64.05;96857.28;4987651;28;20070;-60
2021/05/29 07:09:43;;;;;;;4.07;3.60;;;;;;;18.72;61.52;96853.50;4987938;28;20104;-60
2021/05/29 07:12:11;;;;;;;4.70;3.60;;;;;;;18.61;61.44;96852.09;4986932;28;20062;-60
2021/05/29 07:14:39;;;;;;;4.97;3.88;;;;;;;18.36;61.16;96856.88;4985365;28;20069;-58
2021/05/29 07:17:08;;;;;;;5.60;3.70;;;;;;;18.19;61.54;96864.22;4987581;28;20062;-60
2021/05/29 07:19:36;;;;;;;4.53;3.80;;;;;;;18.24;64.61;96861.03;4986600;28;20073;-60
2021/05/29 07:22:05;;;;;;;5.85;3.80;;;;;;;18.19;64.05;96856.22;4987578;28;20086;-60
2021/05/29 07:24:35;;;;;;;4.57;3.90;;;;;;;18.23;63.10;96854.84;4988998;28;20523;-58
2021/05/29 07:27:04;;;;;;;4.55;3.90;;;;;;;18.56;62.92;96859.84;4983763;28;20407;-60
2021/05/29 07:29:32;;;;;;;4.63;3.90;;;;;;;18.20;64.72;96862.38;4985641;28;20072;-58
2021/05/29 07:32:00;;;;;;;4.30;3.65;;;;;;;17.67;60.73;96853.50;4983603;28;20307;-59
2021/05/29 07:34:28;;;;;;;6.30;4.45;;;;;;;17.42;63.17;96855.56;4988136;28;20073;-60
2021/05/29 07:36:56;;;;;;;5.72;3.92;;;;;;;17.75;62.98;96850.78;4984438;28;20077;-60
2021/05/29 07:39:25;;;;;;;5.80;3.85;;;;;;;17.60;62.40;96850.72;4986001;28;20090;-60
2021/05/29 07:41:53;;;;;;;4.88;4.00;;;;;;;17.36;64.63;96857.09;4985561;28;20069;-60
2021/05/29 07:44:21;;;;;;;5.25;4.22;;;;;;;16.19;71.44;96852.59;4986710;28;20550;-59
2021/05/29 07:46:50;;;;;;;4.95;4.38;;;;;;;16.75;70.31;96850.75;4984574;28;20784;-60
2021/05/29 07:49:18;;;;;;;4.78;4.20;;;;;;;17.49;63.88;96846.66;4986938;28;20082;-60
2021/05/29 07:51:58;;;;;;;5.05;4.05;;;;;;;17.47;65.88;96848.66;4984072;28;20105;-59
2021/05/29 07:54:27;;;;;;;4.30;3.65;;;;;;;17.35;61.26;96843.94;4990020;28;20081;-59
2021/05/29 07:56:56;;;;;;;4.90;3.72;;;;;;;16.71;64.90;96854.75;4982604;28;20058;-57
2021/05/29 07:59:24;;;;;;;5.25;4.20;;;;;;;16.64;62.63;96851.94;4985649;28;20077;-57
2021/05/29 08:01:52;;;;;;;4.13;3.70;;;;;;;17.17;59.96;96852.19;4985401;28;20070;-60
2021/05/29 08:04:20;;;;;;;4.90;3.20;;;;;;;17.37;52.91;96848.06;4986210;28;20500;-59
2021/05/29 08:06:48;;;;;;;4.28;3.20;;;;;;;17.78;59.41;96842.44;4984108;28;20551;-59
2021/05/29 08:09:17;;;;;;;3.50;3.13;;;;;;;17.38;55.49;96849.75;4987067;28;20133;-59
2021/05/29 08:11:46;;;;;;;4.28;2.78;;;;;;;17.47;55.52;96853.16;4983999;28;20062;-60
2021/05/29 08:14:15;;;;;;;4.57;3.10;;;;;;;17.80;53.26;96851.09;4984805;28;20521;-58
2021/05/29 08:16:43;;;;;;;4.00;3.33;;;;;;;17.55;50.26;96845.94;4987867;28;20534;-60
2021/05/29 08:19:12;;;;;;;5.18;3.58;;;;;;;17.42;51.47;96850.22;4982380;28;20078;-60
2021/05/29 08:21:41;;;;;;;4.32;3.70;;;;;;;17.96;56.93;96850.09;4988085;28;20082;-57
2021/05/29 08:24:10;;;;;;;5.43;3.50;;;;;;;17.91;52.88;96845.31;4985406;28;20068;-59
2021/05/29 08:26:39;;;;;;;4.45;3.30;;;;;;;18.36;47.96;96842.72;4983854;28;20074;-59
2021/05/29 08:29:09;;;;;;;5.68;3.30;;;;;;;18.38;48.67;96849.53;4983880;28;20072;-58
2021/05/29 08:31:37;;;;;;;;;;;;;;;18.46;49.76;96849.44;4988238;28;20074;-59
2021/05/29 08:34:06;;;;;;;5.88;3.28;;;;;;;18.55;47.81;96844.84;4983590;28;20252;-60
2021/05/29 08:36:34;;;;;;;4.43;3.10;;;;;;;19.34;45.66;96844.13;4987547;28;20085;-58
2021/05/29 08:39:04;;;;;;;6.65;3.10;;;;;;;18.74;44.23;96854.13;4982960;28;20249;-58
2021/05/29 08:41:32;;;;;;;5.38;2.75;;;;;;;18.76;45.48;96837.94;4984166;28;20069;-60
2021/05/29 08:44:00;;;;;;;4.13;3.15;;;;;;;20.21;45.87;96837.69;4984733;28;20066;-60
2021/05/29 08:46:29;;;;;;;8.52;3.58;;;;;;;19.51;46.72;96842.88;4984724;28;20069;-59
2021/05/29 08:48:57;;;;;;;4.60;3.38;;;;;;;20.90;43.08;96834.16;4983056;28;20066;-58
2021/05/29 08:51:25;;;;;;;5.45;3.38;;;;;;;20.30;45.09;96836.50;4988665;28;20070;-60
2021/05/29 08:53:56;;;;;;;4.35;3.55;;;;;;;20.83;42.74;96842.19;4982126;28;20057;-59
2021/05/29 08:56:26;;;;;;;4.35;3.78;;;;;;;19.44;46.69;96841.97;4986698;28;20073;-59
2021/05/29 08:58:54;;;;;;;4.57;3.53;;;;;;;20.18;43.94;96838.91;4982789;28;20077;-59
2021/05/29 09:01:24;;;;;;;6.28;3.80;;;;;;;19.58;44.86;96837.56;4983883;28;20073;-59
2021/05/29 09:03:55;;;;;;;3.92;3.28;;;;;;;19.45;44.65;96838.28;4984712;28;20480;-57
2021/05/29 09:06:40;;;;;;;3.88;3.13;;;;;;;19.54;44.92;96836.28;4985897;28;21435;-59
2021/05/29 09:09:09;;;;;;;3.80;3.13;;;;;;;18.65;47.52;96844.53;4981364;28;20065;-59
2021/05/29 09:11:47;;;;;;;3.60;2.95;;;;;;;19.01;57.08;96846.44;4986048;28;20480;-59
2021/05/29 09:14:33;;;;;;;5.78;3.17;;;;;;;18.45;55.71;96854.97;4982727;28;20472;-56
2021/05/29 09:17:12;;;;;;;4.53;3.20;;;;;;;17.98;60.88;96848.09;4985499;28;20070;-59
2021/05/29 09:20:04;;;;;;;4.18;3.63;;;;;;;18.08;62.29;96845.19;4981322;28;20077;-58
2021/05/29 09:22:35;;;;;;;4.35;3.22;;;;;;;18.39;53.68;96853.03;4985746;28;20062;-60
2021/05/29 09:25:12;;;;;;;5.25;3.28;;;;;;;18.35;49.39;96849.06;4978410;28;20084;-59
2021/05/29 09:27:52;;;;;;;3.35;3.05;;;;;;;18.76;48.50;96843.28;4987391;28;20773;-57
2021/05/29 09:30:41;;;;;;;4.18;2.88;;;;;;;18.65;46.98;96852.53;4982780;28;20246;-60
2021/05/29 09:33:16;;;;;;;2.80;2.50;;;;;;;18.45;49.58;96857.63;4978909;28;20070;-59
2021/05/29 09:35:55;;;;;;;2.92;2.40;;;;;;;19.29;44.84;96854.56;4983459;28;20077;-59
2021/05/29 09:38:23;;;;;;;2.83;2.33;;;;;;;19.42;45.47;96855.53;4986830;28;20066;-59
2021/05/29 09:40:52;;;;;;;2.50;2.30;;;;;;;19.48;44.79;96855.78;4983620;28;20073;-59
2021/05/29 09:43:21;;;;;;;4.87;2.10;;;;;;;20.04;40.93;96850.56;4983267;28;20073;-59
2021/05/29 09:45:58;;;;;;;2.78;2.38;;;;;;;20.26;42.04;96851.31;4984605;28;20467;-59
2021/05/29 09:48:27;;;;;;;3.60;2.30;;;;;;;21.49;38.69;96841.59;4983742;28;20388;-59
2021/05/29 09:51:07;;;;;;;3.33;2.15;;;;;;;21.23;37.77;96848.53;4983330;28;20066;-60
2021/05/29 09:53:37;;;;;;;2.97;2.00;;;;;;;21.92;40.70;96849.25;4986454;28;20089;-60
2021/05/29 09:56:06;;;;;;;2.10;1.92;;;;;;;20.49;44.08;96859.91;4981510;28;20073;-58
2021/05/29 09:58:56;;;;;;;4.30;2.00;;;;;;;19.79;43.90;96861.69;4985003;28;20066;-58
2021/05/29 10:01:42;;;;;;;2.70;2.20;;;;;;;19.14;45.04;96866.16;4983454;28;20074;-59
2021/05/29 10:04:12;;;;;;;3.75;2.17;;;;;;;19.10;49.08;96866.72;4984178;28;20073;-57
2021/05/29 10:06:41;;;;;;;3.17;2.30;;;;;;;19.10;47.77;96864.03;4984151;28;20082;-58
2021/05/29 10:09:09;;;;;;;3.03;2.30;;;;;;;18.61;49.12;96857.41;4986242;28;20062;-60
2021/05/29 10:11:37;;;;;;;2.70;2.40;;;;;;;17.85;72.18;96861.22;4981759;28;20078;-60
2021/05/29 10:14:07;;;;;;;3.00;2.17;;;;;;;17.93;60.04;96861.16;4967493;28;20409;-60
2021/05/29 10:16:35;;;;;;;3.35;2.65;;;;;;;18.27;62.06;96863.31;4983338;28;20083;-59
2021/05/29 10:19:03;;;;;;;4.90;2.30;;;;;;;19.24;56.72;96848.97;4983781;28;20078;-60
2021/05/29 10:21:31;;;;;;;2.38;2.10;;;;;;;19.45;47.78;96846.31;4986561;28;20170;-59
2021/05/29 10:24:01;;;;;;;2.58;2.15;;;;;;;19.49;46.43;96852.94;4982799;28;20081;-60
2021/05/29 10:26:29;;;;;;;4.90;2.58;;;;;;;20.10;42.63;96849.78;4983693;28;20066;-59
2021/05/29 10:28:58;;;;;;;5.57;2.60;;;;;;;20.29;41.99;96854.44;4983747;28;20062;-59
2021/05/29 10:31:31;;;;;;;3.15;2.25;;;;;;;20.68;40.44;96849.53;4983556;28;20072;-60
2021/05/29 10:33:59;;;;;;;2.50;2.30;;;;;;;20.49;41.84;96848.38;4978828;28;20070;-56
2021/05/29 10:36:41;;;;;;;2.33;2.10;;;;;;;21.27;41.01;96847.09;4991832;28;20078;-58
2021/05/29 10:39:13;;;;;;;2.95;2.03;;;;;;;20.83;40.50;96853.72;4985839;28;20073;-60
2021/05/29 10:41:50;;;;;;;2.78;2.20;;;;;;;21.08;38.79;96843.31;4987028;28;20077;-60
2021/05/29 10:44:35;;;;;;;15.88;3.53;;;;;;;21.03;50.10;96844.94;4981658;28;20476;-57
2021/05/29 10:47:12;;;;;;;2.08;1.88;;;;;;;20.79;45.46;96849.81;4988114;28;20488;-58
2021/05/29 10:50:05;;;;;;;2.63;1.88;;;;;;;20.60;43.09;96847.84;4983157;28;20085;-60
2021/05/29 10:52:52;;;;;;;2.17;1.98;;;;;;;20.58;40.86;96841.88;4977865;28;20062;-60
2021/05/29 10:55:22;;;;;;;2.25;1.83;;;;;;;19.92;40.60;96850.22;4987815;28;20077;-60
2021/05/29 10:57:52;;;;;;;2.00;1.80;;;;;;;19.54;42.65;96847.00;4987193;28;20377;-58
2021/05/29 11:00:53;;;;;;;3.58;1.90;;;;;;;19.49;42.68;96844.91;4984866;28;20550;-61
2021/05/29 11:03:29;;;;;;;2.38;1.60;;;;;;;19.38;39.28;96840.91;4909916;29;20469;-59
2021/05/29 11:06:00;;;;;;;2.42;1.95;;;;;;;20.32;40.31;96837.97;4908373;29;20060;-59
2021/05/29 11:08:48;;;;;;;3.38;1.80;;;;;;;21.17;37.39;96840.47;4941234;28;20476;-58
2021/05/29 11:11:51;;;;;;;3.97;1.70;;;;;;;20.74;37.76;96844.19;4985925;28;20161;-59
2021/05/29 11:14:20;;;;;;;1.60;1.50;;;;;;;21.03;35.62;96832.38;4983780;28;20532;-60
2021/05/29 11:17:16;;;;;;;1.80;1.70;;;;;;;20.93;39.53;96839.97;4986332;28;20074;-60
2021/05/29 11:20:08;;;;;;;2.10;1.70;;;;;;;20.98;36.97;96840.16;4984833;28;20076;-60
2021/05/29 11:22:44;;;;;;;1.77;1.67;;;;;;;21.23;37.16;96840.47;4988416;28;20062;-59
2021/05/29 11:25:15;;;;;;;2.25;1.60;;;;;;;20.78;39.44;96833.91;4982822;28;20078;-59
2021/05/29 11:27:44;;;;;;;;;;;;;;;20.44;39.64;96834.72;4988930;28;20085;-59
2021/05/29 11:30:14;;;;;;;1.45;1.35;;;;;;;20.70;38.52;96834.09;4984141;28;20343;-58
2021/05/29 11:32:49;;;;;;;2.45;1.67;;;;;;;20.95;38.41;96824.47;4986890;28;20062;-59
2021/05/29 11:35:24;;;;;;;1.92;1.70;;;;;;;20.97;38.35;96826.97;4984816;28;20459;-59
2021/05/29 11:38:15;;;;;;;2.20;1.88;;;;;;;21.01;39.22;96825.53;4986997;28;20707;-58
2021/05/29 11:40:52;;;;;;;3.17;1.63;;;;;;;20.23;42.18;96830.28;4983779;28;20070;-59
2021/05/29 11:43:37;;;;;;;1.85;1.58;;;;;;;19.68;41.60;96835.41;4985738;28;20583;-59
2021/05/29 11:46:06;;;;;;;3.08;1.80;;;;;;;19.54;43.45;96837.13;4983016;28;20086;-58
2021/05/29 11:48:37;;;;;;;2.37;1.70;;;;;;;19.76;46.04;96834.47;4987107;28;20090;-58
2021/05/29 11:51:13;;;;;;;2.95;1.70;;;;;;;20.17;40.91;96836.44;4983742;28;20066;-59
2021/05/29 11:53:44;;;;;;;1.92;1.73;;;;;;;20.54;38.68;96830.72;4988087;28;20069;-59
2021/05/29 11:56:13;;;;;;;2.38;1.90;;;;;;;20.48;39.71;96834.16;4981273;28;20074;-57
2021/05/29 11:58:49;;;;;;;1.65;1.55;;;;;;;20.01;42.42;96832.19;4986461;28;20074;-60